Amboy, Iowa
Current Conditions -  °F | °C
As of 6:15 AM on Wednesday 26 Nov 2014 (Local Time) from KTNU Reporting Station
Overcast Overcast  
Wind Chill: 17°   Ceiling: 2800
Heat Index: 28°   Visibility: 10mi
Dew Point: 23°   Wind: 14mph
Humidity: 80%   Direction: 120°ESE
Pressure: 29.91"   Gusts: 20mph
Location:  41.7317°N, 93.0122°W
Report Text: KTNU 261215Z AUTO 12012G17KT 10SM BKN028 OVC034 M02/M05 A2991 RMK AO2
Loading
Personal Weather Stations






























Interactive Weather Map New forecast layout! Learn more

10-Day Weather Forecast

Advertisements
Track Severe Weather on mobile